Time;durP1;ratioP1;P1;durP2;ratioP2;P2;SDS_P1;SDS_P2;PMS_P1;PMS_P2;Temp;Humidity;BMP_temperature;BMP_pressure;BME280_temperature;BME280_humidity;BME280_pressure;Samples;Min_cycle;Max_cycle;Signal;HPM_P1;HPM_P2
2022/07/01 00:00:59;;;;;;;15.00;13.40;;;;;;;;;;5053681;28;20025;-63
2022/07/01 00:03:25;;;;;;;14.38;12.88;;;;;;;;;;5053795;28;20044;-63
2022/07/01 00:05:50;;;;;;;14.77;13.05;;;;;;;;;;5052682;28;20535;-63
2022/07/01 00:08:16;;;;;;;14.18;10.75;;;;;;;;;;5053706;28;20032;-63
2022/07/01 00:10:42;;;;;;;14.90;10.90;;;;;;;;;;5053690;28;20119;-63
2022/07/01 00:13:07;;;;;;;13.88;9.85;;;;;;;;;;5053554;28;20029;-63
2022/07/01 00:15:33;;;;;;;13.95;9.05;;;;;;;;;;5053215;28;20036;-63
2022/07/01 00:17:58;;;;;;;12.70;8.90;;;;;;;;;;5053331;28;20028;-63
2022/07/01 00:20:25;;;;;;;11.85;9.50;;;;;;;;;;5053372;28;20453;-63
2022/07/01 00:22:50;;;;;;;13.52;9.35;;;;;;;;;;5053233;28;20036;-63
2022/07/01 00:25:16;;;;;;;11.63;9.15;;;;;;;;;;5053427;28;20464;-63
2022/07/01 00:27:42;;;;;;;12.60;9.00;;;;;;;;;;5053347;28;20028;-63
2022/07/01 00:30:09;;;;;;;9.90;7.80;;;;;;;;;;5053035;28;20025;-63
2022/07/01 00:32:35;;;;;;;14.52;9.13;;;;;;;;;;5053320;28;20029;-63
2022/07/01 00:35:00;;;;;;;16.00;9.27;;;;;;;;;;5053151;28;20036;-62
2022/07/01 00:37:26;;;;;;;12.93;8.70;;;;;;;;;;5053169;28;20025;-63
2022/07/01 00:39:51;;;;;;;11.40;8.38;;;;;;;;;;5053117;28;20387;-63
2022/07/01 00:42:17;;;;;;;13.20;9.43;;;;;;;;;;5053399;28;20453;-63
2022/07/01 00:44:43;;;;;;;12.55;8.65;;;;;;;;;;5052883;28;20529;-63
2022/07/01 00:47:11;;;;;;;11.88;8.25;;;;;;;;;;5053007;28;20160;-63
2022/07/01 00:49:38;;;;;;;14.98;9.07;;;;;;;;;;5053067;28;20025;-63
2022/07/01 00:52:08;;;;;;;15.27;9.48;;;;;;;;;;5053004;28;20033;-63
2022/07/01 00:54:36;;;;;;;19.90;9.27;;;;;;;;;;5052866;28;20067;-63
2022/07/01 00:57:07;;;;;;;12.57;9.25;;;;;;;;;;5052476;28;20021;-63
2022/07/01 00:59:34;;;;;;;12.88;9.63;;;;;;;;;;5052621;28;20104;-63
2022/07/01 01:02:00;;;;;;;13.95;9.70;;;;;;;;;;5050927;28;20091;-63
2022/07/01 01:04:25;;;;;;;12.45;9.05;;;;;;;;;;5052820;28;20033;-63
2022/07/01 01:06:51;;;;;;;13.48;9.80;;;;;;;;;;5052791;28;20377;-63
2022/07/01 01:09:16;;;;;;;17.50;9.35;;;;;;;;;;5051164;28;20041;-62
2022/07/01 01:11:42;;;;;;;18.30;9.85;;;;;;;;;;5052593;28;20029;-63
2022/07/01 01:14:08;;;;;;;15.52;9.50;;;;;;;;;;5052421;28;20025;-63
2022/07/01 01:16:35;;;;;;;13.73;10.35;;;;;;;;;;5052546;28;20428;-63
2022/07/01 01:19:04;;;;;;;14.32;10.52;;;;;;;;;;5052349;28;20151;-63
2022/07/01 01:21:30;;;;;;;15.20;9.88;;;;;;;;;;5052450;28;20040;-62
2022/07/01 01:23:57;;;;;;;14.85;8.18;;;;;;;;;;5052383;28;20474;-63
2022/07/01 01:26:24;;;;;;;17.38;11.48;;;;;;;;;;5048670;28;20030;-63
2022/07/01 01:28:50;;;;;;;17.38;10.98;;;;;;;;;;5034016;28;20112;-63
2022/07/01 01:31:15;;;;;;;15.65;10.20;;;;;;;;;;5032125;28;20398;-63
2022/07/01 01:33:42;;;;;;;15.20;10.05;;;;;;;;;;5032324;28;20032;-63
2022/07/01 01:36:07;;;;;;;16.48;10.82;;;;;;;;;;5032237;28;20410;-63
2022/07/01 01:38:37;;;;;;;16.95;10.40;;;;;;;;;;5032312;28;20022;-63
2022/07/01 01:41:04;;;;;;;17.42;12.48;;;;;;;;;;5032081;28;20040;-63
2022/07/01 01:43:29;;;;;;;19.15;12.32;;;;;;;;;;5032052;28;20029;-63
2022/07/01 01:45:55;;;;;;;17.77;11.68;;;;;;;;;;5032069;28;20032;-63
2022/07/01 01:48:21;;;;;;;9.50;7.88;;;;;;;;;;5032211;28;20025;-63
2022/07/01 01:50:46;;;;;;;14.02;8.63;;;;;;;;;;5032093;28;20036;-63
2022/07/01 01:53:12;;;;;;;16.02;10.65;;;;;;;;;;5032043;28;20040;-63
2022/07/01 01:55:37;;;;;;;12.38;10.13;;;;;;;;;;5032097;28;20026;-63
2022/07/01 01:58:03;;;;;;;21.85;11.88;;;;;;;;;;5031780;28;20030;-63
2022/07/01 02:00:28;;;;;;;19.98;11.48;;;;;;;;;;5032156;28;20140;-63
2022/07/01 02:02:54;;;;;;;28.80;11.38;;;;;;;;;;5032174;28;20360;-63
2022/07/01 02:05:22;;;;;;;71.45;12.55;;;;;;;;;;5031933;28;20036;-61
2022/07/01 02:07:47;;;;;;;72.15;13.55;;;;;;;;;;5031829;28;20113;-61
2022/07/01 02:10:13;;;;;;;54.47;13.00;;;;;;;;;;5031817;28;20112;-61
2022/07/01 02:12:38;;;;;;;35.28;12.98;;;;;;;;;;5032003;28;20032;-63
2022/07/01 02:15:04;;;;;;;104.00;13.02;;;;;;;;;;5034011;28;20518;-63
2022/07/01 02:17:30;;;;;;;68.28;14.13;;;;;;;;;;5035735;28;20359;-63
2022/07/01 02:19:55;;;;;;;48.67;14.52;;;;;;;;;;5035397;28;20081;-63
2022/07/01 02:22:21;;;;;;;69.97;16.63;;;;;;;;;;5049607;28;20116;-63
2022/07/01 02:24:46;;;;;;;35.67;16.65;;;;;;;;;;5055337;28;20040;-63
2022/07/01 02:27:12;;;;;;;53.45;19.63;;;;;;;;;;5054828;28;20032;-63
2022/07/01 02:29:38;;;;;;;96.20;22.83;;;;;;;;;;5045975;28;20033;-63
2022/07/01 02:32:04;;;;;;;74.38;19.83;;;;;;;;;;5015741;28;20026;-63
2022/07/01 02:34:30;;;;;;;178.93;21.17;;;;;;;;;;5015722;28;20030;-66
2022/07/01 02:36:55;;;;;;;338.38;26.45;;;;;;;;;;5015557;28;20393;-63
2022/07/01 02:39:22;;;;;;;299.90;25.48;;;;;;;;;;5015327;28;20029;-63
2022/07/01 02:44:34;;;;;;;314.58;25.52;;;;;;;;;;5015528;28;20038;-63
2022/07/01 02:46:59;;;;;;;188.18;23.75;;;;;;;;;;5015256;28;20045;-63
2022/07/01 02:49:25;;;;;;;197.50;21.90;;;;;;;;;;5015533;28;20112;-63
2022/07/01 02:51:50;;;;;;;259.98;26.85;;;;;;;;;;5015286;28;20067;-63
2022/07/01 02:54:16;;;;;;;244.77;24.52;;;;;;;;;;5013820;28;20475;-63
2022/07/01 02:56:42;;;;;;;350.23;24.67;;;;;;;;;;5015345;28;20408;-63
2022/07/01 02:59:07;;;;;;;325.92;24.83;;;;;;;;;;5015030;28;20463;-63
2022/07/01 03:01:33;;;;;;;266.73;25.50;;;;;;;;;;5015227;28;20112;-63
2022/07/01 03:03:58;;;;;;;214.75;27.83;;;;;;;;;;5015072;28;20057;-63
2022/07/01 03:06:24;;;;;;;175.98;24.02;;;;;;;;;;5013863;28;20037;-63
2022/07/01 03:08:49;;;;;;;115.40;23.25;;;;;;;;;;5014896;28;20494;-63
2022/07/01 03:11:15;;;;;;;155.27;25.35;;;;;;;;;;5014808;28;20033;-63
2022/07/01 03:13:40;;;;;;;84.03;24.48;;;;;;;;;;5014872;28;20041;-63
2022/07/01 03:16:06;;;;;;;180.25;23.80;;;;;;;;;;5014624;28;20105;-63
2022/07/01 03:18:31;;;;;;;120.93;21.33;;;;;;;;;;5014703;28;20109;-63
2022/07/01 03:20:57;;;;;;;129.30;23.08;;;;;;;;;;5017023;28;20053;-63
2022/07/01 03:23:22;;;;;;;143.35;22.98;;;;;;;;;;5034362;28;20048;-63
2022/07/01 03:25:48;;;;;;;84.40;21.77;;;;;;;;;;5033947;28;20029;-63
2022/07/01 03:28:14;;;;;;;107.07;24.27;;;;;;;;;;5034437;28;20181;-63
2022/07/01 03:30:39;;;;;;;86.85;21.45;;;;;;;;;;5032162;28;20370;-63
2022/07/01 03:33:05;;;;;;;66.53;21.13;;;;;;;;;;5038227;28;20029;-63
2022/07/01 03:35:39;;;;;;;56.08;18.88;;;;;;;;;;5034289;28;20032;-63
2022/07/01 03:38:05;;;;;;;103.88;18.33;;;;;;;;;;5033705;28;20083;-63
2022/07/01 03:40:31;;;;;;;81.95;19.73;;;;;;;;;;5034042;28;20108;-63
2022/07/01 03:42:57;;;;;;;69.65;20.45;;;;;;;;;;5034137;28;20029;-63
2022/07/01 03:45:22;;;;;;;71.13;19.50;;;;;;;;;;5034528;28;20423;-63
2022/07/01 03:47:49;;;;;;;73.40;21.20;;;;;;;;;;5034390;28;20025;-63
2022/07/01 03:50:15;;;;;;;66.68;20.48;;;;;;;;;;5034269;28;20026;-63
2022/07/01 03:52:42;;;;;;;43.47;17.45;;;;;;;;;;5034000;28;20022;-63
2022/07/01 03:55:09;;;;;;;68.22;19.75;;;;;;;;;;5034216;28;20029;-63
2022/07/01 03:57:35;;;;;;;34.90;18.38;;;;;;;;;;5034192;28;20061;-63
2022/07/01 04:00:00;;;;;;;38.90;19.05;;;;;;;;;;5034130;28;20080;-63
2022/07/01 04:02:26;;;;;;;35.42;18.95;;;;;;;;;;5034105;28;20112;-63
2022/07/01 04:04:51;;;;;;;56.65;20.10;;;;;;;;;;5034061;28;20022;-63
2022/07/01 04:07:17;;;;;;;32.00;18.65;;;;;;;;;;5033690;28;20095;-63
2022/07/01 04:09:43;;;;;;;43.03;20.38;;;;;;;;;;5033975;28;20022;-63
2022/07/01 04:12:10;;;;;;;39.65;19.98;;;;;;;;;;5033833;28;20033;-63
2022/07/01 04:14:36;;;;;;;34.35;19.00;;;;;;;;;;5033903;28;20107;-63
2022/07/01 04:17:02;;;;;;;33.67;19.25;;;;;;;;;;5033748;28;20080;-63
2022/07/01 04:19:28;;;;;;;28.92;18.38;;;;;;;;;;5033644;28;20498;-63
2022/07/01 04:24:37;;;;;;;32.55;20.05;;;;;;;;;;5053728;28;20381;-63
2022/07/01 04:27:03;;;;;;;47.55;20.20;;;;;;;;;;5053576;28;20025;-63
2022/07/01 04:29:29;;;;;;;36.72;20.33;;;;;;;;;;5053425;28;20450;-63
2022/07/01 04:31:57;;;;;;;45.28;19.92;;;;;;;;;;5053543;28;20106;-63
2022/07/01 04:34:23;;;;;;;50.55;18.52;;;;;;;;;;5053425;28;20021;-63
2022/07/01 04:36:49;;;;;;;27.73;14.88;;;;;;;;;;5052195;28;20032;-63
2022/07/01 04:39:15;;;;;;;50.15;17.40;;;;;;;;;;5053319;28;20033;-63
2022/07/01 04:41:58;;;;;;;47.85;19.17;;;;;;;;;;5053335;28;20033;-63
2022/07/01 04:44:24;;;;;;;41.40;18.90;;;;;;;;;;5053282;28;20056;-63
2022/07/01 04:46:50;;;;;;;82.78;22.25;;;;;;;;;;5053000;28;20032;-63
2022/07/01 04:49:15;;;;;;;83.75;23.00;;;;;;;;;;5053033;28;20017;-63
2022/07/01 04:51:41;;;;;;;53.83;22.55;;;;;;;;;;5052928;28;20068;-63
2022/07/01 04:54:08;;;;;;;74.63;21.05;;;;;;;;;;5052952;28;20097;-63
2022/07/01 04:56:35;;;;;;;56.83;22.20;;;;;;;;;;5053015;28;20028;-63
2022/07/01 04:59:01;;;;;;;50.83;23.88;;;;;;;;;;5052726;28;20025;-63
2022/07/01 05:01:28;;;;;;;71.20;24.00;;;;;;;;;;5052968;28;20028;-63
2022/07/01 05:03:54;;;;;;;27.45;16.23;;;;;;;;;;5052989;28;20028;-63
2022/07/01 05:06:20;;;;;;;39.45;23.80;;;;;;;;;;5052548;28;20036;-63
2022/07/01 05:08:45;;;;;;;34.20;24.35;;;;;;;;;;5052800;28;20025;-63
2022/07/01 05:11:11;;;;;;;30.15;23.33;;;;;;;;;;5052777;28;20031;-63
2022/07/01 05:13:37;;;;;;;27.40;22.02;;;;;;;;;;5052719;28;20462;-63
2022/07/01 05:16:03;;;;;;;30.75;24.05;;;;;;;;;;5052655;28;20100;-63
2022/07/01 05:23:57;;;;;;;39.55;27.67;;;;;;;;;;5052586;28;20068;-63
2022/07/01 05:26:25;;;;;;;33.65;23.83;;;;;;;;;;5052615;28;20463;-63
2022/07/01 05:28:53;;;;;;;33.58;24.92;;;;;;;;;;5052523;28;20090;-63
2022/07/01 05:31:19;;;;;;;31.77;24.00;;;;;;;;;;5052477;28;20119;-63
2022/07/01 05:33:45;;;;;;;39.45;25.02;;;;;;;;;;5052370;28;20075;-63
2022/07/01 05:36:11;;;;;;;29.15;22.83;;;;;;;;;;5052387;28;20029;-63
2022/07/01 05:38:37;;;;;;;27.75;21.95;;;;;;;;;;5052380;28;20486;-63
2022/07/01 05:41:03;;;;;;;29.67;23.20;;;;;;;;;;5052463;28;20025;-63
2022/07/01 05:43:29;;;;;;;30.52;23.90;;;;;;;;;;5052494;28;20028;-63
2022/07/01 05:45:55;;;;;;;33.40;24.25;;;;;;;;;;5051066;28;20040;-63
2022/07/01 05:48:21;;;;;;;30.38;21.92;;;;;;;;;;5053133;28;20024;-63
2022/07/01 05:50:47;;;;;;;26.75;21.75;;;;;;;;;;5056457;28;20432;-63
2022/07/01 05:53:13;;;;;;;21.02;18.70;;;;;;;;;;5056360;28;20032;-63
2022/07/01 05:55:39;;;;;;;23.08;19.42;;;;;;;;;;5056339;28;20016;-63
2022/07/01 05:58:06;;;;;;;25.17;19.88;;;;;;;;;;5056287;28;20021;-63
2022/07/01 06:00:32;;;;;;;26.02;18.90;;;;;;;;;;5056337;28;20021;-63
2022/07/01 06:02:57;;;;;;;25.77;20.25;;;;;;;;;;5055925;28;20021;-63
2022/07/01 06:05:23;;;;;;;31.30;17.75;;;;;;;;;;5056239;28;20032;-63
2022/07/01 06:07:48;;;;;;;23.70;15.25;;;;;;;;;;5056070;28;20044;-63
2022/07/01 06:10:14;;;;;;;22.80;16.30;;;;;;;;;;5055989;28;20154;-61
2022/07/01 06:12:40;;;;;;;20.70;16.30;;;;;;;;;;5056240;28;20029;-61
2022/07/01 06:15:07;;;;;;;18.23;14.40;;;;;;;;;;5056151;28;20428;-62
2022/07/01 06:17:34;;;;;;;23.55;17.30;;;;;;;;;;5055589;28;20104;-62
2022/07/01 06:19:59;;;;;;;19.67;13.32;;;;;;;;;;5055739;28;20049;-62
2022/07/01 06:22:25;;;;;;;22.85;16.48;;;;;;;;;;5055683;28;20032;-62
2022/07/01 06:24:51;;;;;;;22.98;14.45;;;;;;;;;;5055858;28;20073;-62
2022/07/01 06:27:16;;;;;;;27.02;15.68;;;;;;;;;;5055749;28;20466;-62
2022/07/01 06:29:42;;;;;;;20.30;15.13;;;;;;;;;;5055709;28;20480;-62
2022/07/01 06:32:07;;;;;;;19.48;14.73;;;;;;;;;;5055577;28;20453;-62
2022/07/01 06:34:34;;;;;;;19.67;13.23;;;;;;;;;;5055686;28;20025;-62
2022/07/01 06:37:00;;;;;;;17.25;13.48;;;;;;;;;;5055715;28;20363;-62
2022/07/01 06:39:28;;;;;;;18.20;12.93;;;;;;;;;;5055628;28;20074;-62
2022/07/01 06:41:55;;;;;;;18.23;14.77;;;;;;;;;;5055595;28;20029;-62
2022/07/01 06:44:20;;;;;;;19.67;15.10;;;;;;;;;;5055673;28;20159;-62
2022/07/01 06:46:46;;;;;;;17.75;14.27;;;;;;;;;;5054858;28;20187;-62
2022/07/01 06:49:12;;;;;;;18.40;14.85;;;;;;;;;;5055515;28;20052;-62
2022/07/01 06:51:38;;;;;;;19.33;14.40;;;;;;;;;;5055412;28;20381;-62
2022/07/01 06:54:03;;;;;;;16.73;12.57;;;;;;;;;;5055405;28;20052;-62
2022/07/01 06:56:29;;;;;;;15.63;13.88;;;;;;;;;;5055345;28;20470;-62
2022/07/01 06:58:55;;;;;;;18.00;13.80;;;;;;;;;;5055241;28;20043;-62
2022/07/01 07:01:21;;;;;;;18.20;13.48;;;;;;;;;;5042786;28;20021;-62
2022/07/01 07:03:46;;;;;;;19.20;13.30;;;;;;;;;;5039217;28;20033;-62
2022/07/01 07:06:12;;;;;;;16.52;11.98;;;;;;;;;;5034627;28;20052;-63
2022/07/01 07:08:38;;;;;;;17.77;14.02;;;;;;;;;;5034720;28;20022;-63
2022/07/01 07:11:04;;;;;;;18.05;13.55;;;;;;;;;;5034505;28;20359;-63
2022/07/01 07:13:29;;;;;;;19.67;13.88;;;;;;;;;;5034525;28;20029;-63
2022/07/01 07:15:55;;;;;;;17.55;12.65;;;;;;;;;;5034444;28;20017;-62
2022/07/01 07:18:21;;;;;;;17.98;14.10;;;;;;;;;;5034628;28;20106;-63
2022/07/01 07:20:49;;;;;;;18.15;13.25;;;;;;;;;;5035109;28;20041;-62
2022/07/01 07:23:15;;;;;;;17.50;13.27;;;;;;;;;;5054345;28;20086;-63
2022/07/01 07:25:40;;;;;;;15.05;13.05;;;;;;;;;;5054330;28;20385;-63
2022/07/01 07:28:06;;;;;;;15.05;12.68;;;;;;;;;;5054353;28;20021;-63
2022/07/01 07:30:31;;;;;;;20.35;12.65;;;;;;;;;;5054155;28;20489;-63
2022/07/01 07:32:57;;;;;;;17.02;11.93;;;;;;;;;;5054182;28;20385;-63
2022/07/01 07:35:23;;;;;;;13.88;11.52;;;;;;;;;;5054305;28;20027;-62
2022/07/01 07:37:49;;;;;;;18.73;12.98;;;;;;;;;;5054388;28;20086;-63
2022/07/01 07:40:18;;;;;;;18.35;12.10;;;;;;;;;;5054349;28;20121;-63
2022/07/01 07:42:45;;;;;;;19.40;12.23;;;;;;;;;;5053979;28;20103;-63
2022/07/01 07:45:14;;;;;;;14.43;12.27;;;;;;;;;;5053851;28;20025;-63
2022/07/01 07:47:48;;;;;;;14.83;11.67;;;;;;;;;;5053950;28;20424;-63
2022/07/01 07:50:14;;;;;;;14.60;11.45;;;;;;;;;;5053949;28;20040;-63
2022/07/01 07:52:40;;;;;;;13.00;11.30;;;;;;;;;;5053906;28;20098;-63
2022/07/01 07:55:08;;;;;;;14.60;11.25;;;;;;;;;;5053710;28;20025;-63
2022/07/01 07:57:35;;;;;;;16.60;11.80;;;;;;;;;;5053842;28;20041;-63
2022/07/01 08:00:01;;;;;;;15.00;12.23;;;;;;;;;;5053530;28;20036;-63
2022/07/01 08:02:26;;;;;;;15.93;12.15;;;;;;;;;;5053787;28;20416;-63
2022/07/01 08:04:52;;;;;;;15.85;11.23;;;;;;;;;;5053650;28;20028;-63
2022/07/01 08:07:17;;;;;;;27.05;12.02;;;;;;;;;;5053480;28;20021;-63
2022/07/01 08:09:46;;;;;;;12.80;11.43;;;;;;;;;;5053610;28;20029;-63
2022/07/01 08:12:12;;;;;;;14.75;11.30;;;;;;;;;;5053420;28;20032;-63
2022/07/01 08:14:38;;;;;;;16.95;11.20;;;;;;;;;;5053383;28;20386;-63
2022/07/01 08:17:03;;;;;;;14.32;10.93;;;;;;;;;;5053469;28;20510;-64
2022/07/01 08:19:29;;;;;;;14.25;10.57;;;;;;;;;;5053204;28;20049;-63
2022/07/01 08:21:54;;;;;;;16.38;11.35;;;;;;;;;;5053189;28;20414;-63
2022/07/01 08:24:20;;;;;;;13.85;10.68;;;;;;;;;;5053343;28;20086;-63
2022/07/01 08:26:46;;;;;;;13.60;10.38;;;;;;;;;;5053091;28;20436;-63
2022/07/01 08:29:11;;;;;;;16.77;10.52;;;;;;;;;;5053058;28;20040;-64
2022/07/01 08:31:37;;;;;;;12.15;10.88;;;;;;;;;;5053039;28;20122;-63
2022/07/01 08:34:02;;;;;;;14.32;11.35;;;;;;;;;;5053142;28;20419;-63
2022/07/01 08:36:28;;;;;;;13.18;10.35;;;;;;;;;;5053128;28;20040;-63
2022/07/01 08:38:53;;;;;;;10.73;9.70;;;;;;;;;;5052828;28;20433;-63
2022/07/01 08:41:19;;;;;;;13.30;9.57;;;;;;;;;;5053087;28;20028;-63
2022/07/01 08:43:45;;;;;;;13.25;10.23;;;;;;;;;;5052619;28;20021;-63
2022/07/01 08:46:11;;;;;;;17.35;11.30;;;;;;;;;;5052866;28;20055;-63
2022/07/01 08:48:37;;;;;;;13.10;10.07;;;;;;;;;;5052653;28;20039;-63
2022/07/01 08:51:04;;;;;;;13.00;10.55;;;;;;;;;;5052656;28;20029;-63
2022/07/01 08:53:32;;;;;;;18.15;10.80;;;;;;;;;;5052728;28;20469;-63
2022/07/01 08:58:45;;;;;;;13.07;10.38;;;;;;;;;;5052687;28;20036;-63
2022/07/01 09:01:20;;;;;;;12.80;9.77;;;;;;;;;;5052644;28;20017;-63
2022/07/01 09:03:46;;;;;;;13.30;9.57;;;;;;;;;;5052550;28;20462;-63
2022/07/01 09:06:18;;;;;;;12.65;8.95;;;;;;;;;;5052251;28;20040;-63
2022/07/01 09:08:45;;;;;;;12.27;8.80;;;;;;;;;;5052083;28;20025;-63
2022/07/01 09:11:25;;;;;;;14.60;8.85;;;;;;;;;;5050693;28;20067;-63
2022/07/01 09:14:09;;;;;;;10.90;8.73;;;;;;;;;;5052499;28;20028;-63
2022/07/01 09:16:48;;;;;;;11.65;7.95;;;;;;;;;;5052475;28;20478;-63
2022/07/01 09:19:15;;;;;;;12.15;8.50;;;;;;;;;;5052173;28;20037;-63
2022/07/01 09:21:41;;;;;;;12.10;9.00;;;;;;;;;;5052226;28;20032;-63
2022/07/01 09:24:32;;;;;;;10.00;8.52;;;;;;;;;;5051938;28;20013;-64
2022/07/01 09:27:04;;;;;;;12.35;7.93;;;;;;;;;;5051698;28;20367;-63
2022/07/01 09:29:34;;;;;;;9.23;6.97;;;;;;;;;;5052149;28;20029;-64
2022/07/01 09:32:06;;;;;;;8.55;7.15;;;;;;;;;;5052241;28;20478;-64
2022/07/01 09:34:43;;;;;;;6.82;4.97;;;;;;;;;;5052223;28;20040;-63
2022/07/01 09:37:15;;;;;;;7.30;4.88;;;;;;;;;;5052120;28;20029;-63
2022/07/01 09:39:45;;;;;;;8.55;6.03;;;;;;;;;;5052193;28;20378;-64
2022/07/01 09:42:11;;;;;;;7.13;4.78;;;;;;;;;;5050853;28;20035;-63
2022/07/01 09:44:51;;;;;;;7.40;5.13;;;;;;;;;;5052222;28;20055;-64
2022/07/01 09:47:17;;;;;;;7.97;5.40;;;;;;;;;;5051952;28;20112;-64
2022/07/01 09:49:42;;;;;;;7.07;4.80;;;;;;;;;;5051976;28;20108;-64
2022/07/01 09:52:08;;;;;;;7.90;5.57;;;;;;;;;;5052158;28;20056;-64
2022/07/01 09:54:35;;;;;;;6.85;4.47;;;;;;;;;;5051944;28;20028;-64
2022/07/01 09:57:02;;;;;;;6.95;4.20;;;;;;;;;;5051805;28;20032;-63
2022/07/01 09:59:28;;;;;;;6.65;3.38;;;;;;;;;;5052117;28;20022;-64
2022/07/01 10:01:53;;;;;;;6.32;4.63;;;;;;;;;;5052064;28;20036;-64
2022/07/01 10:04:19;;;;;;;6.13;3.92;;;;;;;;;;5051957;28;20108;-64
2022/07/01 10:07:04;;;;;;;11.02;4.10;;;;;;;;;;5051847;28;20044;-64
2022/07/01 10:10:01;;;;;;;6.38;4.10;;;;;;;;;;5019258;28;20076;-64
2022/07/01 10:12:35;;;;;;;8.82;4.60;;;;;;;;;;5012427;28;20403;-64
2022/07/01 10:15:02;;;;;;;8.13;4.00;;;;;;;;;;5012191;28;20026;-64
2022/07/01 10:17:30;;;;;;;6.88;4.10;;;;;;;;;;5012187;28;20100;-63
2022/07/01 10:19:57;;;;;;;5.20;4.47;;;;;;;;;;5012146;28;20060;-64
2022/07/01 10:22:29;;;;;;;11.73;4.30;;;;;;;;;;5026313;28;20112;-64
2022/07/01 10:24:55;;;;;;;8.85;4.47;;;;;;;;;;5031443;28;20095;-64
2022/07/01 10:27:24;;;;;;;6.55;3.90;;;;;;;;;;5031677;28;20026;-64
2022/07/01 10:30:13;;;;;;;18.55;4.88;;;;;;;;;;5031871;28;20022;-63
2022/07/01 10:32:47;;;;;;;8.70;4.85;;;;;;;;;;5030778;28;20371;-64
2022/07/01 10:35:13;;;;;;;9.93;4.80;;;;;;;;;;5032402;28;20482;-64
2022/07/01 10:37:58;;;;;;;5.95;4.55;;;;;;;;;;5035524;28;20033;-64
2022/07/01 10:40:41;;;;;;;8.50;4.43;;;;;;;;;;5035407;28;20061;-63
2022/07/01 10:43:07;;;;;;;7.43;3.78;;;;;;;;;;5035237;28;20033;-64
2022/07/01 10:45:46;;;;;;;9.57;4.40;;;;;;;;;;5035518;28;20029;-63
2022/07/01 10:48:22;;;;;;;7.32;3.90;;;;;;;;;;5035056;28;20030;-63
2022/07/01 10:50:48;;;;;;;9.18;4.55;;;;;;;;;;5034999;28;20060;-64
2022/07/01 10:53:14;;;;;;;7.57;4.72;;;;;;;;;;5034963;28;20549;-63
2022/07/01 10:56:01;;;;;;;9.15;5.65;;;;;;;;;;5035132;28;20349;-64
2022/07/01 10:58:38;;;;;;;7.57;5.00;;;;;;;;;;5035276;28;20100;-63
2022/07/01 11:01:04;;;;;;;7.10;4.65;;;;;;;;;;5034806;28;20489;-63
2022/07/01 11:03:35;;;;;;;6.53;4.28;;;;;;;;;;5035051;28;20112;-63
2022/07/01 11:06:00;;;;;;;6.05;4.70;;;;;;;;;;5034996;28;20021;-64
2022/07/01 11:08:26;;;;;;;6.63;4.90;;;;;;;;;;5034450;28;20466;-64
2022/07/01 11:10:56;;;;;;;6.80;4.95;;;;;;;;;;5034882;28;20029;-63
2022/07/01 11:13:21;;;;;;;8.27;5.45;;;;;;;;;;5034631;28;20021;-63
2022/07/01 11:15:47;;;;;;;14.68;6.18;;;;;;;;;;5034619;28;20481;-63
2022/07/01 11:18:16;;;;;;;10.70;6.20;;;;;;;;;;5039004;28;20034;-63
2022/07/01 11:20:41;;;;;;;8.75;6.20;;;;;;;;;;5034471;28;20402;-63
2022/07/01 11:23:07;;;;;;;9.88;6.30;;;;;;;;;;5054421;28;20029;-63
2022/07/01 11:25:33;;;;;;;9.43;6.18;;;;;;;;;;5054336;28;20029;-63
2022/07/01 11:27:58;;;;;;;10.88;6.55;;;;;;;;;;5053977;28;20029;-64
2022/07/01 11:30:24;;;;;;;9.10;6.55;;;;;;;;;;5054461;28;20120;-63
2022/07/01 11:32:58;;;;;;;8.77;6.13;;;;;;;;;;5054324;28;20095;-63
2022/07/01 11:41:02;;;;;;;8.70;6.18;;;;;;;;;;5054042;28;20087;-63
2022/07/01 11:43:29;;;;;;;9.40;5.85;;;;;;;;;;5054198;28;20096;-63
2022/07/01 11:45:59;;;;;;;11.23;6.00;;;;;;;;;;5047586;28;20048;-63
2022/07/01 11:48:43;;;;;;;;;;;;;;;;;;5034546;28;20034;-63
2022/07/01 11:51:14;;;;;;;10.55;6.68;;;;;;;;;;5033913;28;19928;-63
2022/07/01 11:53:45;;;;;;;10.63;5.80;;;;;;;;;;5034209;28;20422;-63
2022/07/01 11:56:12;;;;;;;10.20;6.38;;;;;;;;;;5033899;28;20396;-63
2022/07/01 11:58:56;;;;;;;9.82;5.55;;;;;;;;;;5033749;28;20037;-63
2022/07/01 12:01:30;;;;;;;10.68;5.80;;;;;;;;;;5033932;28;20406;-63
2022/07/01 12:03:58;;;;;;;11.68;5.80;;;;;;;;;;5033752;28;20324;-63
2022/07/01 12:06:24;;;;;;;10.43;6.20;;;;;;;;;;5033633;28;20109;-62
2022/07/01 12:08:51;;;;;;;8.13;5.90;;;;;;;;;;5033638;28;20057;-63
2022/07/01 12:11:17;;;;;;;6.45;5.32;;;;;;;;;;5032230;28;20459;-62
2022/07/01 12:13:45;;;;;;;9.65;5.70;;;;;;;;;;5033671;28;20096;-63
2022/07/01 12:16:12;;;;;;;7.75;6.28;;;;;;;;;;5033509;28;20021;-63
2022/07/01 12:18:37;;;;;;;13.98;5.85;;;;;;;;;;5033396;28;20355;-63
2022/07/01 12:21:04;;;;;;;13.45;7.70;;;;;;;;;;5032941;28;20064;-63
2022/07/01 12:23:30;;;;;;;10.75;6.50;;;;;;;;;;5033464;28;20544;-62
2022/07/01 12:25:56;;;;;;;10.48;6.13;;;;;;;;;;5033306;28;20482;-66
2022/07/01 12:28:33;;;;;;;14.27;5.72;;;;;;;;;;5033594;28;20045;-68
2022/07/01 12:31:07;;;;;;;18.38;5.85;;;;;;;;;;5033175;28;20033;-67
2022/07/01 12:33:37;;;;;;;27.80;7.00;;;;;;;;;;5033166;28;20029;-62
2022/07/01 12:36:05;;;;;;;25.67;6.10;;;;;;;;;;5032929;28;20018;-62
2022/07/01 12:38:32;;;;;;;32.97;8.07;;;;;;;;;;5033124;28;20462;-65
2022/07/01 12:40:57;;;;;;;19.10;6.75;;;;;;;;;;5032859;28;20470;-66
2022/07/01 12:43:25;;;;;;;18.88;7.43;;;;;;;;;;5032850;28;20028;-67
2022/07/01 12:45:50;;;;;;;19.15;8.07;;;;;;;;;;5033096;28;20025;-67
2022/07/01 12:48:16;;;;;;;17.38;6.38;;;;;;;;;;5032767;28;20411;-67
2022/07/01 12:50:42;;;;;;;16.73;6.65;;;;;;;;;;5032667;28;20432;-67
2022/07/01 12:53:16;;;;;;;18.15;6.70;;;;;;;;;;5032612;28;20025;-66
2022/07/01 12:55:43;;;;;;;14.05;6.07;;;;;;;;;;5033003;28;20112;-66
2022/07/01 12:58:12;;;;;;;29.67;5.30;;;;;;;;;;5031977;28;20033;-67
2022/07/01 13:00:39;;;;;;;16.77;6.00;;;;;;;;;;5032762;28;20014;-66
2022/07/01 13:03:06;;;;;;;15.98;6.38;;;;;;;;;;5032541;28;20040;-66
2022/07/01 13:05:34;;;;;;;15.00;6.05;;;;;;;;;;5032623;28;20449;-66
2022/07/01 13:08:00;;;;;;;11.07;4.75;;;;;;;;;;5032629;28;20060;-67
2022/07/01 13:10:26;;;;;;;16.15;4.95;;;;;;;;;;5032659;28;20029;-60
2022/07/01 13:12:51;;;;;;;16.90;4.10;;;;;;;;;;5032642;28;20095;-64
2022/07/01 13:15:19;;;;;;;9.80;4.30;;;;;;;;;;5032392;28;20104;-66
2022/07/01 13:17:45;;;;;;;12.00;3.28;;;;;;;;;;5032297;28;20028;-66
2022/07/01 13:20:12;;;;;;;5.57;2.97;;;;;;;;;;5032288;28;20049;-67
2022/07/01 13:22:38;;;;;;;5.55;2.92;;;;;;;;;;5048654;28;20040;-67
2022/07/01 13:25:05;;;;;;;4.88;2.53;;;;;;;;;;5052310;28;20108;-68
2022/07/01 13:27:31;;;;;;;4.40;2.38;;;;;;;;;;5052297;28;20036;-67
2022/07/01 13:29:57;;;;;;;5.70;3.20;;;;;;;;;;5052156;28;20021;-64
2022/07/01 13:32:23;;;;;;;3.92;2.55;;;;;;;;;;5052186;28;20029;-67
2022/07/01 13:34:49;;;;;;;5.65;3.40;;;;;;;;;;5052137;28;20066;-67
2022/07/01 13:37:15;;;;;;;4.72;2.80;;;;;;;;;;5051350;28;20043;-67
2022/07/01 13:39:40;;;;;;;5.13;2.97;;;;;;;;;;5032383;28;20124;-65
2022/07/01 13:42:06;;;;;;;7.68;3.78;;;;;;;;;;5032657;28;20039;-67
2022/07/01 13:44:31;;;;;;;5.28;4.05;;;;;;;;;;5032546;28;20021;-68
2022/07/01 13:46:57;;;;;;;7.55;3.40;;;;;;;;;;5032069;28;20109;-68
2022/07/01 13:49:22;;;;;;;6.70;4.65;;;;;;;;;;5032532;28;20363;-67
2022/07/01 13:51:48;;;;;;;6.95;4.32;;;;;;;;;;5032541;28;20414;-68
2022/07/01 13:54:13;;;;;;;7.95;4.80;;;;;;;;;;5032571;28;20622;-67
2022/07/01 13:56:40;;;;;;;8.35;4.75;;;;;;;;;;5032437;28;20103;-67
2022/07/01 13:59:06;;;;;;;10.70;5.80;;;;;;;;;;5032337;28;20025;-66
2022/07/01 14:01:33;;;;;;;9.23;5.40;;;;;;;;;;5032094;28;20105;-67
2022/07/01 14:03:58;;;;;;;13.95;6.10;;;;;;;;;;5032335;28;20021;-67
2022/07/01 14:06:24;;;;;;;8.18;5.50;;;;;;;;;;5032300;28;20437;-65
2022/07/01 14:08:49;;;;;;;8.68;5.88;;;;;;;;;;5032157;28;20021;-67
2022/07/01 14:11:15;;;;;;;9.65;6.35;;;;;;;;;;5036368;28;20036;-66
2022/07/01 14:13:40;;;;;;;11.07;6.82;;;;;;;;;;5035686;28;20390;-67
2022/07/01 14:16:06;;;;;;;10.82;6.85;;;;;;;;;;5035840;28;20108;-66
2022/07/01 14:18:33;;;;;;;12.52;7.00;;;;;;;;;;5035885;28;20459;-67
2022/07/01 14:21:00;;;;;;;14.60;7.20;;;;;;;;;;5035480;28;20042;-67
2022/07/01 14:23:26;;;;;;;13.88;8.57;;;;;;;;;;5035628;28;20519;-66
2022/07/01 14:25:51;;;;;;;16.30;7.90;;;;;;;;;;5035568;28;20128;-67
2022/07/01 14:28:17;;;;;;;17.17;8.93;;;;;;;;;;5035917;28;20037;-67
2022/07/01 14:30:43;;;;;;;16.08;8.77;;;;;;;;;;5034735;28;20036;-67
2022/07/01 14:33:08;;;;;;;14.50;8.27;;;;;;;;;;5035629;28;20129;-66
2022/07/01 14:35:34;;;;;;;14.00;8.52;;;;;;;;;;5035694;28;20379;-66
2022/07/01 14:38:00;;;;;;;13.90;9.93;;;;;;;;;;5035620;28;20049;-65
2022/07/01 14:40:26;;;;;;;15.15;8.38;;;;;;;;;;5035559;28;20445;-66
2022/07/01 14:42:51;;;;;;;18.20;8.75;;;;;;;;;;5035522;28;20108;-65
2022/07/01 14:45:17;;;;;;;16.30;9.70;;;;;;;;;;5035291;28;20021;-65